ADDS METAR Data INFO
IDs: Format: Raw Decoded Include TAF

Data at: 1934 UTC 19 Jul 2018

KMVN 191856Z AUTO 15006KT 10SM BKN100 29/19 A2994 RMK AO2 SLP134 T02940194
KMVN 191756Z AUTO 14007KT 10SM SCT110 30/19 A2995 RMK AO2 SLP136 T03000189 10300 20189 58008
KMVN 191656Z AUTO 15005KT 10SM OVC110 28/18 A2997 RMK AO2 SLP143 T02830183
KMVN 191556Z AUTO 12006KT 10SM BKN110 28/18 A2997 RMK AO2 SLP144 T02780183
KMVN 191456Z AUTO VRB04KT 10SM CLR 27/17 A2997 RMK AO2 SLP145 T02720172 58002
KMVN 191356Z AUTO 00000KT 10SM CLR 23/17 A2999 RMK AO2 SLP151 T02330172
KMVN 191256Z AUTO 00000KT 10SM CLR 21/17 A2999 RMK AO2 SLP151 T02110172
KMVN 191156Z AUTO 03004KT 10SM BKN120 18/17 A2998 RMK AO2 SLP148 T01830167 10183 20156 51002
KMVN 191056Z AUTO 00000KT 10SM CLR 17/16 A2998 RMK AO2 SLP148 T01670161
KMVN 190956Z AUTO 00000KT 9SM CLR 16/15 A2997 RMK AO2 SLP146 T01560150
KMVN 190856Z AUTO 00000KT 10SM CLR 16/16 A2997 RMK AO2 SLP146 T01610156 58013
KMVN 190756Z AUTO 01003KT 10SM CLR 18/17 A2998 RMK AO2 SLP149 T01780167
KMVN 190656Z AUTO 01003KT 10SM CLR 18/17 A3001 RMK AO2 SLP156 T01780167
KMVN 190556Z AUTO 00000KT 10SM CLR 17/16 A3001 RMK AO2 SLP160 T01720161 10272 20172 52001
KMVN 190456Z AUTO 02003KT 10SM CLR 19/17 A3001 RMK AO2 SLP159 T01890172 403060178
KMVN 190356Z AUTO 02004KT 10SM CLR 21/18 A3001 RMK AO2 SLP158 T02060178
KMVN 190256Z AUTO 02004KT 10SM CLR 22/18 A3001 RMK AO2 SLP158 T02220183 53004
KMVN 190156Z AUTO 02003KT 10SM CLR 23/19 A3000 RMK AO2 SLP154 T02330189
KMVN 190056Z AUTO 03004KT 10SM CLR 25/18 A2999 RMK AO2 SLP152 T02500183
KMVN 182356Z AUTO 05006KT 10SM CLR 28/18 A3000 RMK AO2 SLP154 T02780183 10306 20272 55002
KMVN 182256Z AUTO 07006KT 10SM SCT045 29/19 A3000 RMK AO2 SLP153 T02940189
KMVN 182156Z AUTO 08008KT 10SM CLR 30/18 A3000 RMK AO2 SLP153 T03000183
KMVN 182056Z AUTO 07008KT 10SM CLR 29/18 A3001 RMK AO2 SLP156 T02940183 58021
KMVN 181956Z AUTO VRB04KT 10SM SCT045 30/19 A3004 RMK AO2 SLP169 T03000189
KMVN 181856Z AUTO 06008G14KT 10SM FEW045 29/18 A3006 RMK AO2 SLP175 T02940183
KMVN 181756Z AUTO VRB05KT 10SM CLR 29/18 A3007 RMK AO2 SLP178 T02940183 10294 20206 58006
KMVN 181656Z AUTO 07005KT 10SM CLR 28/18 A3008 RMK AO2 SLP183 T02830178
KMVN 181556Z AUTO 05007KT 10SM CLR 27/17 A3009 RMK AO2 SLP184 T02720167
KMVN 181456Z AUTO 06008KT 10SM CLR 26/16 A3009 RMK AO2 SLP184 T02610156 50001
KMVN 181356Z AUTO 07007KT 10SM CLR 24/16 A3009 RMK AO2 SLP185 T02390156
KMVN 181256Z AUTO 06008KT 10SM CLR 22/16 A3008 RMK AO2 SLP182 T02220161
KMVN 181156Z AUTO 05006KT 10SM CLR 21/17 A3009 RMK AO2 SLP183 T02060172 10206 20178 53009
KMVN 181056Z AUTO 03005KT 10SM CLR 19/17 A3008 RMK AO2 SLP180 T01890172
KMVN 180956Z AUTO 03005KT 10SM CLR 19/18 A3007 RMK AO2 SLP176 T01940178
KMVN 180856Z AUTO 02005KT 10SM CLR 18/18 A3006 RMK AO2 SLP174 T01830183 53002
KMVN 180837Z AUTO 00000KT 9SM CLR 18/18 A3006 RMK AO2
KMVN 180830Z AUTO 00000KT 2SM BR CLR 18/18 A3006 RMK AO2
KMVN 180821Z AUTO 00000KT 1SM BR CLR 18/17 A3006 RMK AO2 VIS 1/4V5
KMVN 180756Z AUTO 00000KT 8SM CLR 19/18 A3005 RMK AO2 SLP173 T01890183
KMVN 180746Z AUTO 00000KT 3SM BR CLR 18/18 A3005 RMK AO2
KMVN 180736Z AUTO 00000KT 1 3/4SM BR CLR 18/18 A3005 RMK AO2